createdAt,value
2023-03-11T00:00:31.557Z,1.55
2023-03-11T00:03:01.198Z,1.60
2023-03-11T00:05:30.874Z,1.67
2023-03-11T00:07:57.813Z,1.60
2023-03-11T00:10:33.917Z,1.50
2023-03-11T00:13:01.401Z,1.50
2023-03-11T00:15:29.562Z,1.80
2023-03-11T00:17:56.855Z,1.60
2023-03-11T00:20:32.956Z,1.20
2023-03-11T00:23:01.132Z,1.60
2023-03-11T00:25:30.206Z,1.50
2023-03-11T00:27:57.769Z,1.40
2023-03-11T00:30:25.594Z,1.50
2023-03-11T00:32:54.867Z,1.40
2023-03-11T00:35:24.852Z,1.47
2023-03-11T00:37:55.788Z,1.30
2023-03-11T00:40:24.089Z,1.40
2023-03-11T00:42:50.954Z,1.50
2023-03-11T00:45:17.865Z,1.40
2023-03-11T00:47:44.893Z,1.30
2023-03-11T00:50:17.872Z,1.20
2023-03-11T00:52:46.808Z,1.30
2023-03-11T00:55:15.539Z,1.23
2023-03-11T00:57:43.324Z,1.20
2023-03-11T01:00:15.120Z,1.10
2023-03-11T01:02:41.961Z,1.20
2023-03-11T01:05:10.104Z,1.40
2023-03-11T01:07:37.157Z,1.20
2023-03-11T01:10:05.561Z,1.10
2023-03-11T01:12:32.772Z,1.20
2023-03-11T01:14:59.985Z,1.20
2023-03-11T01:17:26.870Z,1.20
2023-03-11T01:19:53.743Z,1.20
2023-03-11T01:22:20.531Z,1.20
2023-03-11T01:24:47.466Z,1.40
2023-03-11T01:27:14.398Z,1.10
2023-03-11T01:29:41.278Z,1.10
2023-03-11T01:32:08.394Z,1.20
2023-03-11T01:34:36.242Z,1.30
2023-03-11T01:37:03.652Z,1.30
2023-03-11T01:39:30.960Z,1.40
2023-03-11T01:41:57.826Z,1.20
2023-03-11T01:44:24.763Z,1.10
2023-03-11T01:46:54.684Z,1.02
2023-03-11T01:49:22.958Z,1.30
2023-03-11T01:51:53.432Z,1.20
2023-03-11T01:54:34.236Z,1.27
2023-03-11T01:57:04.708Z,1.40
2023-03-11T01:59:36.224Z,1.30
2023-03-11T02:02:13.730Z,1.40
2023-03-11T02:04:41.762Z,1.30
2023-03-11T02:07:10.229Z,1.30
2023-03-11T02:09:37.543Z,1.58
2023-03-11T02:12:06.297Z,1.63
2023-03-11T02:14:35.032Z,1.40
2023-03-11T02:17:01.950Z,1.25
2023-03-11T02:19:49.230Z,1.50
2023-03-11T02:22:16.739Z,1.30
2023-03-11T02:24:49.074Z,1.50
2023-03-11T02:27:19.322Z,1.40
2023-03-11T02:29:49.703Z,1.40
2023-03-11T02:32:17.307Z,1.30
2023-03-11T02:34:44.674Z,1.65
2023-03-11T02:37:14.537Z,1.45
2023-03-11T02:39:48.048Z,1.60
2023-03-11T02:42:30.823Z,1.25
2023-03-11T02:45:06.045Z,1.40
2023-03-11T02:47:33.341Z,1.20
2023-03-11T02:50:00.266Z,1.40
2023-03-11T02:52:28.983Z,1.60
2023-03-11T02:54:56.041Z,1.30
2023-03-11T02:57:22.900Z,1.20
2023-03-11T02:59:49.701Z,1.30
2023-03-11T03:02:17.041Z,1.23
2023-03-11T03:04:44.483Z,1.30
2023-03-11T03:07:11.525Z,1.13
2023-03-11T03:09:38.453Z,1.45
2023-03-11T03:12:05.819Z,1.40
2023-03-11T03:14:32.911Z,1.60
2023-03-11T03:17:00.030Z,1.60
2023-03-11T03:19:27.028Z,1.30
2023-03-11T03:21:53.890Z,1.50
2023-03-11T03:24:20.779Z,1.80
2023-03-11T03:26:47.566Z,1.52
2023-03-11T03:29:14.464Z,1.55
2023-03-11T03:31:41.413Z,1.50
2023-03-11T03:34:08.898Z,1.80
2023-03-11T03:36:35.733Z,1.85
2023-03-11T03:39:02.782Z,1.80
2023-03-11T03:41:29.667Z,1.80
2023-03-11T03:43:56.820Z,1.90
2023-03-11T03:46:24.027Z,1.60
2023-03-11T03:48:51.223Z,1.70
2023-03-11T03:51:18.369Z,1.60
2023-03-11T03:53:46.586Z,1.92
2023-03-11T03:56:15.927Z,1.70
2023-03-11T03:58:43.238Z,1.80
2023-03-11T04:01:11.440Z,1.63
2023-03-11T04:03:39.529Z,1.70
2023-03-11T04:06:33.848Z,1.58
2023-03-11T04:09:00.763Z,1.58
2023-03-11T04:11:27.797Z,1.60
2023-03-11T04:13:55.012Z,1.70
2023-03-11T04:16:24.140Z,1.80
2023-03-11T04:18:51.317Z,1.77
2023-03-11T04:21:18.364Z,1.60
2023-03-11T04:23:45.362Z,1.80
2023-03-11T04:26:12.546Z,1.80
2023-03-11T04:28:39.738Z,1.83
2023-03-11T04:31:06.806Z,1.90
2023-03-11T04:33:33.756Z,1.50
2023-03-11T04:36:04.813Z,1.77
2023-03-11T04:38:31.763Z,2.38
2023-03-11T04:41:03.242Z,2.50
2023-03-11T04:43:30.288Z,2.50
2023-03-11T04:45:57.224Z,2.08
2023-03-11T04:48:25.144Z,1.70
2023-03-11T04:50:52.141Z,1.95
2023-03-11T04:53:19.010Z,1.90
2023-03-11T04:55:47.838Z,1.80
2023-03-11T04:58:14.832Z,1.80
2023-03-11T05:00:41.892Z,1.55
2023-03-11T05:03:08.990Z,1.63
2023-03-11T05:05:35.905Z,1.77
2023-03-11T05:08:02.854Z,1.73
2023-03-11T05:10:31.882Z,1.50
2023-03-11T05:12:59.104Z,1.58
2023-03-11T05:15:26.000Z,1.70
2023-03-11T05:17:52.940Z,1.75
2023-03-11T05:20:19.900Z,1.80
2023-03-11T05:22:46.773Z,1.80
2023-03-11T05:25:13.708Z,1.70
2023-03-11T05:27:40.642Z,1.90
2023-03-11T05:30:08.399Z,1.70
2023-03-11T05:32:35.328Z,2.30
2023-03-11T05:35:02.299Z,1.50
2023-03-11T05:37:32.312Z,1.80
2023-03-11T05:39:59.205Z,1.70
2023-03-11T05:42:26.134Z,1.60
2023-03-11T05:44:53.127Z,1.60
2023-03-11T05:47:20.004Z,1.58
2023-03-11T05:49:50.010Z,1.73
2023-03-11T05:52:17.553Z,1.70
2023-03-11T05:54:44.492Z,1.70
2023-03-11T05:57:11.373Z,1.40
2023-03-11T05:59:38.199Z,1.70
2023-03-11T06:02:05.316Z,1.70
2023-03-11T06:04:32.395Z,1.50
2023-03-11T06:06:59.588Z,1.40
2023-03-11T06:09:26.470Z,1.50
2023-03-11T06:11:53.399Z,1.60
2023-03-11T06:14:20.535Z,1.58
2023-03-11T06:16:47.527Z,1.70
2023-03-11T06:19:14.411Z,1.80
2023-03-11T06:21:41.284Z,2.10
2023-03-11T06:24:08.365Z,1.90
2023-03-11T06:26:35.444Z,1.93
2023-03-11T06:29:02.361Z,2.00
2023-03-11T06:31:30.077Z,2.10
2023-03-11T06:33:57.498Z,2.40
2023-03-11T06:36:24.350Z,2.13
2023-03-11T06:38:54.775Z,2.00
2023-03-11T06:41:21.666Z,1.50
2023-03-11T06:43:48.596Z,1.70
2023-03-11T06:46:21.607Z,1.60
2023-03-11T06:48:52.187Z,2.03
2023-03-11T06:51:20.962Z,2.10
2023-03-11T06:53:52.451Z,1.92
2023-03-11T06:56:21.156Z,1.80
2023-03-11T06:58:48.269Z,1.60
2023-03-11T07:01:17.494Z,1.75
2023-03-11T07:03:47.037Z,1.80
2023-03-11T07:06:18.409Z,1.80
2023-03-11T07:08:48.143Z,1.60
2023-03-11T07:11:21.438Z,1.30
2023-03-11T07:13:48.501Z,1.38
2023-03-11T07:16:24.274Z,1.70
2023-03-11T07:18:52.320Z,1.90
2023-03-11T07:21:22.100Z,1.40
2023-03-11T07:23:53.323Z,1.40
2023-03-11T07:26:20.748Z,1.40
2023-03-11T07:28:49.371Z,2.00
2023-03-11T07:31:19.902Z,1.58
2023-03-11T07:33:47.569Z,1.60
2023-03-11T07:36:17.473Z,2.10
2023-03-11T07:38:45.236Z,1.80
2023-03-11T07:41:14.195Z,2.10
2023-03-11T07:43:42.892Z,1.60
2023-03-11T07:46:13.035Z,1.65
2023-03-11T07:48:40.517Z,1.52
2023-03-11T07:51:13.221Z,1.67
2023-03-11T07:53:40.758Z,1.75
2023-03-11T07:56:09.603Z,1.60
2023-03-11T07:58:36.539Z,1.92
2023-03-11T08:01:06.931Z,1.80
2023-03-11T08:03:37.757Z,1.45
2023-03-11T08:06:13.130Z,1.73
2023-03-11T08:08:40.258Z,1.77
2023-03-11T08:11:07.265Z,1.60
2023-03-11T08:13:34.464Z,1.55
2023-03-11T08:16:05.075Z,2.40
2023-03-11T08:18:32.258Z,3.28
2023-03-11T08:20:59.120Z,2.80
2023-03-11T08:23:26.138Z,2.35
2023-03-11T08:25:52.927Z,2.42
2023-03-11T08:28:19.767Z,1.50
2023-03-11T08:30:46.625Z,2.78
2023-03-11T08:33:13.654Z,2.70
2023-03-11T08:35:40.743Z,2.00
2023-03-11T08:38:07.819Z,2.20
2023-03-11T08:40:35.014Z,1.75
2023-03-11T08:43:01.838Z,1.60
2023-03-11T08:45:28.682Z,1.50
2023-03-11T08:47:55.607Z,1.80
2023-03-11T08:50:22.490Z,1.33
2023-03-11T08:52:49.574Z,1.63
2023-03-11T08:55:24.946Z,1.50
2023-03-11T08:57:52.076Z,1.40
2023-03-11T09:00:19.476Z,1.25
2023-03-11T09:02:47.513Z,1.60
2023-03-11T09:05:14.718Z,1.50
2023-03-11T09:07:42.045Z,1.70
2023-03-11T09:10:09.773Z,1.40
2023-03-11T09:12:36.594Z,1.50
2023-03-11T09:15:03.819Z,1.30
2023-03-11T09:17:30.768Z,1.10
2023-03-11T09:19:57.693Z,1.50
2023-03-11T09:22:24.902Z,1.42
2023-03-11T09:24:51.845Z,1.30
2023-03-11T09:27:18.677Z,1.20
2023-03-11T09:29:45.599Z,1.30
2023-03-11T09:32:13.595Z,1.10
2023-03-11T09:34:41.050Z,1.30
2023-03-11T09:37:08.358Z,1.30
2023-03-11T09:39:35.284Z,1.20
2023-03-11T09:42:12.982Z,1.20
2023-03-11T09:45:00.920Z,1.20
2023-03-11T09:47:37.696Z,1.27
2023-03-11T09:50:15.317Z,1.25
2023-03-11T09:52:56.146Z,1.30
2023-03-11T09:55:47.846Z,1.20
2023-03-11T09:58:36.619Z,1.30
2023-03-11T10:01:34.079Z,1.00
2023-03-11T10:04:11.392Z,1.00
2023-03-11T10:06:39.851Z,1.00
2023-03-11T10:09:12.830Z,1.15
2023-03-11T10:12:10.378Z,1.10
2023-03-11T10:14:44.398Z,1.00
2023-03-11T10:17:38.843Z,1.00
2023-03-11T10:20:38.820Z,0.90
2023-03-11T10:23:08.666Z,0.90
2023-03-11T10:26:11.088Z,0.98
2023-03-11T10:28:56.230Z,0.75
2023-03-11T10:31:29.735Z,0.90
2023-03-11T10:34:03.191Z,0.90
2023-03-11T10:36:39.455Z,0.90
2023-03-11T10:39:09.951Z,1.00
2023-03-11T10:41:42.702Z,1.23
2023-03-11T10:44:29.449Z,1.20
2023-03-11T10:46:56.549Z,1.20
2023-03-11T10:49:23.597Z,1.20
2023-03-11T10:51:53.432Z,1.65
2023-03-11T10:54:32.717Z,1.40
2023-03-11T10:57:19.775Z,1.40
2023-03-11T10:59:48.163Z,2.10
2023-03-11T11:02:34.348Z,1.60
2023-03-11T11:05:19.012Z,1.40
2023-03-11T11:07:47.917Z,1.50
2023-03-11T11:10:19.779Z,1.50
2023-03-11T11:13:23.092Z,1.40
2023-03-11T11:16:00.272Z,1.40
2023-03-11T11:18:42.480Z,1.50
2023-03-11T11:21:14.758Z,1.60
2023-03-11T11:23:49.207Z,1.48
2023-03-11T11:26:22.693Z,1.40
2023-03-11T11:29:16.512Z,1.60
2023-03-11T11:31:46.129Z,1.50
2023-03-11T11:34:32.032Z,1.40
2023-03-11T11:37:02.685Z,1.30
2023-03-11T11:39:36.981Z,1.67
2023-03-11T11:42:04.574Z,1.45
2023-03-11T11:44:35.038Z,1.40
2023-03-11T11:47:16.361Z,1.48
2023-03-11T11:49:52.555Z,1.10
2023-03-11T11:52:30.883Z,1.52
2023-03-11T11:55:00.646Z,1.40
2023-03-11T11:57:28.422Z,1.55
2023-03-11T11:59:57.557Z,1.40
2023-03-11T12:02:51.915Z,1.50
2023-03-11T12:05:30.138Z,1.30
2023-03-11T12:08:00.568Z,1.73
2023-03-11T12:10:43.899Z,1.70
2023-03-11T12:13:29.868Z,1.50
2023-03-11T12:16:11.471Z,1.30
2023-03-11T12:19:01.299Z,1.40
2023-03-11T12:21:43.198Z,1.70
2023-03-11T12:24:36.326Z,1.75
2023-03-11T12:27:13.958Z,1.83
2023-03-11T12:29:45.668Z,2.42
2023-03-11T12:32:34.693Z,6.35
2023-03-11T12:35:18.141Z,1.50
2023-03-11T12:37:45.122Z,1.40
2023-03-11T12:40:42.613Z,1.45
2023-03-11T12:43:47.515Z,2.40
2023-03-11T12:46:17.610Z,1.60
2023-03-11T12:49:11.918Z,1.35
2023-03-11T12:51:40.708Z,3.60
2023-03-11T12:54:36.694Z,1.60
2023-03-11T12:57:21.365Z,4.70
2023-03-11T13:00:17.527Z,3.07
2023-03-11T13:03:06.182Z,3.45
2023-03-11T13:05:50.939Z,1.60
2023-03-11T13:08:21.555Z,2.42
2023-03-11T13:10:50.755Z,2.00
2023-03-11T13:13:42.113Z,1.90
2023-03-11T13:16:14.861Z,2.03
2023-03-11T13:18:44.361Z,1.25
2023-03-11T13:21:29.986Z,1.83
2023-03-11T13:24:18.791Z,1.55
2023-03-11T13:27:07.783Z,1.50
2023-03-11T13:29:53.426Z,1.40
2023-03-11T13:32:38.835Z,1.30
2023-03-11T13:35:09.283Z,1.63
2023-03-11T13:38:12.242Z,1.30
2023-03-11T13:40:44.508Z,1.50
2023-03-11T13:43:17.587Z,1.67
2023-03-11T13:46:07.246Z,1.60
2023-03-11T13:48:40.656Z,1.73
2023-03-11T13:51:20.315Z,1.70
2023-03-11T13:53:57.708Z,1.80
2023-03-11T13:56:31.297Z,1.50
2023-03-11T13:59:17.610Z,1.60
2023-03-11T14:01:55.101Z,1.70
2023-03-11T14:04:33.493Z,4.20
2023-03-11T14:07:11.875Z,2.10
2023-03-11T14:09:39.124Z,3.10
2023-03-11T14:12:10.180Z,2.80
2023-03-11T14:14:55.880Z,2.20
2023-03-11T14:17:22.679Z,2.10
2023-03-11T14:20:16.794Z,2.17
2023-03-11T14:22:49.486Z,2.30
2023-03-11T14:25:28.375Z,1.80
2023-03-11T14:28:01.356Z,1.90
2023-03-11T14:30:30.837Z,2.10
2023-03-11T14:33:16.156Z,1.90
2023-03-11T14:35:56.079Z,1.90
2023-03-11T14:38:25.514Z,2.60
2023-03-11T14:41:02.640Z,2.20
2023-03-11T14:43:34.646Z,1.80
2023-03-11T14:46:03.068Z,2.95
2023-03-11T14:48:40.076Z,2.80
2023-03-11T14:51:15.390Z,2.10
2023-03-11T14:53:50.970Z,2.20
2023-03-11T14:56:23.199Z,2.17
2023-03-11T14:59:15.003Z,2.60
2023-03-11T15:01:44.430Z,1.90
2023-03-11T15:04:14.604Z,2.10
2023-03-11T15:06:44.565Z,2.20
2023-03-11T15:09:15.020Z,2.92
2023-03-11T15:11:58.115Z,2.00
2023-03-11T15:14:32.878Z,2.55
2023-03-11T15:17:37.792Z,2.30
2023-03-11T15:20:35.223Z,2.10
2023-03-11T15:23:07.670Z,2.20
2023-03-11T15:25:37.769Z,4.32
2023-03-11T15:28:29.925Z,2.20
2023-03-11T15:31:17.617Z,2.25
2023-03-11T15:33:45.359Z,2.15
2023-03-11T15:36:31.031Z,2.90
2023-03-11T15:39:11.282Z,2.70
2023-03-11T15:41:38.154Z,2.10
2023-03-11T15:44:07.576Z,2.47
2023-03-11T15:46:34.885Z,2.00
2023-03-11T15:49:01.809Z,2.00
2023-03-11T15:51:28.603Z,2.00
2023-03-11T15:53:55.513Z,2.00
2023-03-11T15:56:25.236Z,1.85
2023-03-11T15:58:52.196Z,2.10
2023-03-11T16:01:23.697Z,1.73
2023-03-11T16:03:51.325Z,1.70
2023-03-11T16:06:18.357Z,2.10
2023-03-11T16:08:45.300Z,2.00
2023-03-11T16:11:12.997Z,1.73
2023-03-11T16:13:39.891Z,1.85
2023-03-11T16:16:07.220Z,2.20
2023-03-11T16:18:35.777Z,2.20
2023-03-11T16:21:08.458Z,1.80
2023-03-11T16:23:50.508Z,2.00
2023-03-11T16:26:19.112Z,1.85
2023-03-11T16:28:46.055Z,3.53
2023-03-11T16:31:12.973Z,2.58
2023-03-11T16:33:39.997Z,2.75
2023-03-11T16:36:07.102Z,2.03
2023-03-11T16:38:48.865Z,2.25
2023-03-11T16:41:16.828Z,1.80
2023-03-11T16:43:43.829Z,2.20
2023-03-11T16:46:10.672Z,2.05
2023-03-11T16:48:37.589Z,2.60
2023-03-11T16:51:04.713Z,2.17
2023-03-11T16:53:31.743Z,1.98
2023-03-11T16:55:59.742Z,1.90
2023-03-11T16:58:26.762Z,2.30
2023-03-11T17:00:53.641Z,2.07
2023-03-11T17:03:21.751Z,1.80
2023-03-11T17:05:49.301Z,2.40
2023-03-11T17:08:18.235Z,2.17
2023-03-11T17:10:46.178Z,1.80
2023-03-11T17:13:17.709Z,1.70
2023-03-11T17:15:45.828Z,1.73
2023-03-11T17:18:13.505Z,2.30
2023-03-11T17:20:43.409Z,2.30
2023-03-11T17:23:10.515Z,2.50
2023-03-11T17:25:40.572Z,2.08
2023-03-11T17:28:08.106Z,2.40
2023-03-11T17:30:37.274Z,3.60
2023-03-11T17:33:04.636Z,3.15
2023-03-11T17:35:31.559Z,3.83
2023-03-11T17:37:58.568Z,4.30
2023-03-11T17:40:26.864Z,7.32
2023-03-11T17:42:53.836Z,4.00
2023-03-11T17:45:20.829Z,10.50
2023-03-11T17:47:47.773Z,6.57
2023-03-11T17:50:14.745Z,4.72
2023-03-11T17:52:41.701Z,2.80
2023-03-11T17:55:09.181Z,2.47
2023-03-11T17:57:45.092Z,1.80
2023-03-11T18:00:14.790Z,1.77
2023-03-11T18:02:42.354Z,4.93
2023-03-11T18:05:09.516Z,2.30
2023-03-11T18:07:40.838Z,2.42
2023-03-11T18:10:08.918Z,3.35
2023-03-11T18:12:36.089Z,3.97
2023-03-11T18:15:07.247Z,3.00
2023-03-11T18:17:37.053Z,3.55
2023-03-11T18:20:05.251Z,4.05
2023-03-11T18:22:35.124Z,6.20
2023-03-11T18:25:02.142Z,5.30
2023-03-11T18:27:29.065Z,3.83
2023-03-11T18:29:55.958Z,4.05
2023-03-11T18:32:24.678Z,7.15
2023-03-11T18:34:51.750Z,2.78
2023-03-11T18:37:18.757Z,5.00
2023-03-11T18:39:45.688Z,5.20
2023-03-11T18:42:14.000Z,4.53
2023-03-11T18:44:42.098Z,3.60
2023-03-11T18:47:09.000Z,3.08
2023-03-11T18:49:36.040Z,3.08
2023-03-11T18:52:03.013Z,3.67
2023-03-11T18:54:29.961Z,3.60
2023-03-11T18:56:56.813Z,3.40
2023-03-11T18:59:23.664Z,3.30
2023-03-11T19:01:51.056Z,3.30
2023-03-11T19:04:17.911Z,3.40
2023-03-11T19:06:44.876Z,3.10
2023-03-11T19:09:11.973Z,3.80
2023-03-11T19:11:38.858Z,4.20
2023-03-11T19:14:05.818Z,3.80
2023-03-11T19:16:32.750Z,3.20
2023-03-11T19:19:00.402Z,3.60
2023-03-11T19:21:27.669Z,4.10
2023-03-11T19:23:56.513Z,3.67
2023-03-11T19:26:41.574Z,3.45
2023-03-11T19:29:10.646Z,3.70
2023-03-11T19:31:37.686Z,3.40
2023-03-11T19:34:04.631Z,5.40
2023-03-11T19:36:31.778Z,5.15
2023-03-11T19:38:58.685Z,4.72
2023-03-11T19:41:25.589Z,5.13
2023-03-11T19:43:52.540Z,5.33
2023-03-11T19:46:22.344Z,4.80
2023-03-11T19:48:49.566Z,5.10
2023-03-11T19:51:20.106Z,5.55
2023-03-11T19:53:47.190Z,5.50
2023-03-11T19:56:14.443Z,4.80
2023-03-11T19:58:42.458Z,4.80
2023-03-11T20:01:19.388Z,4.63
2023-03-11T20:03:46.800Z,6.07
2023-03-11T20:06:16.532Z,7.50
2023-03-11T20:08:44.131Z,10.02
2023-03-11T20:11:11.012Z,9.98
2023-03-11T20:13:38.241Z,10.90
2023-03-11T20:16:11.688Z,10.70
2023-03-11T20:18:38.759Z,10.60
2023-03-11T20:21:11.063Z,9.35
2023-03-11T20:23:39.700Z,7.80
2023-03-11T20:26:12.434Z,6.63
2023-03-11T20:28:39.812Z,5.50
2023-03-11T20:31:19.723Z,5.65
2023-03-11T20:33:50.673Z,4.80
2023-03-11T20:36:21.226Z,4.78
2023-03-11T20:38:52.693Z,4.35
2023-03-11T20:41:20.535Z,4.40
2023-03-11T20:43:47.624Z,3.95
2023-03-11T20:46:14.582Z,4.35
2023-03-11T20:48:41.656Z,4.10
2023-03-11T20:51:12.030Z,4.27
2023-03-11T20:53:39.343Z,4.60
2023-03-11T20:56:20.066Z,4.05
2023-03-11T20:58:48.821Z,3.60
2023-03-11T21:01:24.398Z,3.50
2023-03-11T21:03:54.196Z,3.15
2023-03-11T21:06:22.950Z,3.23
2023-03-11T21:08:50.748Z,3.20
2023-03-11T21:11:18.236Z,3.40
2023-03-11T21:13:45.368Z,3.42
2023-03-11T21:16:12.984Z,2.70
2023-03-11T21:18:41.372Z,2.80
2023-03-11T21:21:10.599Z,2.60
2023-03-11T21:23:42.106Z,2.92
2023-03-11T21:26:09.708Z,2.80
2023-03-11T21:28:38.859Z,3.00
2023-03-11T21:31:11.707Z,2.78
2023-03-11T21:33:40.234Z,3.40
2023-03-11T21:36:09.660Z,3.17
2023-03-11T21:38:36.979Z,3.30
2023-03-11T21:41:13.653Z,3.58
2023-03-11T21:43:42.572Z,3.40
2023-03-11T21:46:12.583Z,3.30
2023-03-11T21:48:39.860Z,3.60
2023-03-11T21:51:07.523Z,3.40
2023-03-11T21:53:35.058Z,3.88
2023-03-11T21:56:03.758Z,3.87
2023-03-11T21:58:31.783Z,3.73
2023-03-11T22:00:59.371Z,4.85
2023-03-11T22:03:26.660Z,4.07
2023-03-11T22:06:00.831Z,3.60
2023-03-11T22:08:28.209Z,3.37
2023-03-11T22:10:55.304Z,3.67
2023-03-11T22:13:22.949Z,3.30
2023-03-11T22:15:50.504Z,3.20
2023-03-11T22:18:17.555Z,3.42
2023-03-11T22:20:44.722Z,3.10
2023-03-11T22:23:11.725Z,3.25
2023-03-11T22:25:38.708Z,3.50
2023-03-11T22:28:05.613Z,3.10
2023-03-11T22:30:32.481Z,3.50
2023-03-11T22:32:59.334Z,2.90
2023-03-11T22:35:26.228Z,2.80
2023-03-11T22:37:53.210Z,2.63
2023-03-11T22:40:20.119Z,2.60
2023-03-11T22:42:47.013Z,2.80
2023-03-11T22:45:13.893Z,2.65
2023-03-11T22:47:40.790Z,2.97
2023-03-11T22:50:08.000Z,2.90
2023-03-11T22:52:34.892Z,2.75
2023-03-11T22:55:01.801Z,2.80
2023-03-11T22:57:28.891Z,3.20
2023-03-11T22:59:55.696Z,3.20
2023-03-11T23:02:22.656Z,3.10
2023-03-11T23:04:49.514Z,2.88
2023-03-11T23:07:16.453Z,2.53
2023-03-11T23:09:43.306Z,2.88
2023-03-11T23:12:10.230Z,2.97
2023-03-11T23:14:44.887Z,2.90
2023-03-11T23:17:12.625Z,2.67
2023-03-11T23:19:39.547Z,2.60
2023-03-11T23:22:07.057Z,2.60
2023-03-11T23:24:34.128Z,2.80
2023-03-11T23:27:04.663Z,2.60
2023-03-11T23:29:32.088Z,2.63
2023-03-11T23:31:58.900Z,2.50
2023-03-11T23:34:25.823Z,2.60
2023-03-11T23:36:52.655Z,2.65
2023-03-11T23:39:19.488Z,3.00
2023-03-11T23:41:46.374Z,3.00
2023-03-11T23:44:14.401Z,2.60
2023-03-11T23:46:41.250Z,3.00
2023-03-11T23:49:08.141Z,2.80
2023-03-11T23:51:35.098Z,3.60
2023-03-11T23:54:01.961Z,3.80
2023-03-11T23:56:29.000Z,4.60
2023-03-11T23:58:55.806Z,3.90
